createdAt,value
2019-02-27T00:00:15.645Z,68.04
2019-02-27T00:02:42.353Z,67.53
2019-02-27T00:05:09.095Z,67.81
2019-02-27T00:07:35.817Z,67.92
2019-02-27T00:10:05.943Z,69.42
2019-02-27T00:12:29.430Z,70.68
2019-02-27T00:14:56.154Z,71.71
2019-02-27T00:17:22.922Z,70.94
2019-02-27T00:19:49.635Z,71.19
2019-02-27T00:22:17.714Z,71.62
2019-02-27T00:24:43.114Z,71.70
2019-02-27T00:27:09.862Z,71.92
2019-02-27T00:29:36.594Z,71.66
2019-02-27T00:32:03.439Z,71.53
2019-02-27T00:34:32.850Z,71.30
2019-02-27T00:36:56.922Z,70.81
2019-02-27T00:39:23.654Z,69.94
2019-02-27T00:41:50.393Z,71.08
2019-02-27T00:44:17.122Z,72.38
2019-02-27T00:46:44.027Z,72.35
2019-02-27T00:49:10.606Z,72.78
2019-02-27T00:51:37.359Z,71.93
2019-02-27T00:54:04.116Z,72.47
2019-02-27T00:56:30.863Z,74.00
2019-02-27T00:58:59.878Z,74.22
2019-02-27T01:01:24.342Z,74.05
2019-02-27T01:03:51.066Z,73.85
2019-02-27T01:06:17.826Z,75.92
2019-02-27T01:08:44.917Z,76.12
2019-02-27T01:11:12.301Z,76.38
2019-02-27T01:13:39.038Z,76.09
2019-02-27T01:16:05.764Z,76.89
2019-02-27T01:18:32.498Z,76.82
2019-02-27T01:20:59.210Z,77.60
2019-02-27T01:23:25.946Z,78.00
2019-02-27T01:25:56.108Z,77.23
2019-02-27T01:28:19.401Z,75.41
2019-02-27T01:30:46.122Z,74.52
2019-02-27T01:33:12.862Z,77.04
2019-02-27T01:35:39.602Z,78.03
2019-02-27T01:38:06.342Z,77.42
2019-02-27T01:40:33.073Z,78.69
2019-02-27T01:42:59.810Z,78.59
2019-02-27T01:45:26.526Z,79.36
2019-02-27T01:47:53.257Z,78.41
2019-02-27T01:50:26.969Z,78.96
2019-02-27T01:52:53.717Z,80.00
2019-02-27T01:55:22.451Z,80.42
2019-02-27T01:57:47.189Z,81.24
2019-02-27T02:00:13.906Z,80.32
2019-02-27T02:02:40.638Z,79.57
2019-02-27T02:05:07.359Z,79.01
2019-02-27T02:07:34.091Z,79.61
2019-02-27T02:10:00.805Z,80.89
2019-02-27T02:12:29.880Z,80.88
2019-02-27T02:15:08.393Z,82.21
2019-02-27T02:18:18.189Z,81.32
2019-02-27T02:21:04.539Z,81.50
2019-02-27T02:23:54.753Z,82.34
2019-02-27T02:26:53.415Z,82.17
2019-02-27T02:30:00.469Z,81.26
2019-02-27T02:32:36.688Z,80.57
2019-02-27T02:35:19.790Z,81.16
2019-02-27T02:38:15.225Z,81.58
2019-02-27T02:41:27.954Z,80.55
2019-02-27T02:44:22.906Z,81.03
2019-02-27T02:47:19.529Z,80.28
2019-02-27T02:50:08.788Z,78.26
2019-02-27T02:53:09.585Z,77.64
2019-02-27T02:55:49.321Z,79.16
2019-02-27T02:58:28.261Z,80.20
2019-02-27T03:01:02.037Z,81.49
2019-02-27T03:03:54.174Z,81.49
2019-02-27T03:06:36.129Z,81.30
2019-02-27T03:09:13.830Z,79.00
2019-02-27T03:11:54.006Z,80.76
2019-02-27T03:14:28.574Z,80.91
2019-02-27T03:17:17.868Z,81.88
2019-02-27T03:19:51.343Z,82.09
2019-02-27T03:22:27.478Z,81.51
2019-02-27T03:25:22.118Z,82.16
2019-02-27T03:28:05.870Z,83.51
2019-02-27T03:31:17.955Z,83.45
2019-02-27T03:34:12.119Z,83.51
2019-02-27T03:36:55.121Z,84.05
2019-02-27T03:39:35.143Z,84.04
2019-02-27T03:42:30.822Z,84.26
2019-02-27T03:45:13.212Z,84.45
2019-02-27T03:48:00.738Z,84.22
2019-02-27T03:50:59.230Z,83.89
2019-02-27T03:53:39.071Z,84.39
2019-02-27T03:56:19.725Z,83.71
2019-02-27T03:58:52.910Z,83.14
2019-02-27T04:01:39.951Z,83.07
2019-02-27T04:04:20.843Z,82.25
2019-02-27T04:07:18.779Z,82.58
2019-02-27T04:09:45.559Z,83.50
2019-02-27T04:12:16.127Z,83.54
2019-02-27T04:14:41.780Z,84.97
2019-02-27T04:17:07.542Z,85.72
2019-02-27T04:19:38.759Z,85.24
2019-02-27T04:22:01.189Z,85.45
2019-02-27T04:24:25.986Z,86.64
2019-02-27T04:26:52.709Z,86.65
2019-02-27T04:29:19.424Z,86.73
2019-02-27T04:31:46.160Z,86.62
2019-02-27T04:34:12.875Z,85.13
2019-02-27T04:36:39.628Z,84.32
2019-02-27T04:39:06.367Z,83.27
2019-02-27T04:41:33.094Z,84.27
2019-02-27T04:43:59.805Z,86.16
2019-02-27T04:46:26.515Z,86.07
2019-02-27T04:48:53.234Z,85.53
2019-02-27T04:51:19.950Z,85.52
2019-02-27T04:53:46.702Z,85.16
2019-02-27T04:56:13.418Z,85.28
2019-02-27T04:58:42.849Z,86.40
2019-02-27T05:01:06.857Z,86.58
2019-02-27T05:03:33.621Z,86.81
2019-02-27T05:06:00.337Z,86.85
2019-02-27T05:08:27.735Z,86.79
2019-02-27T05:10:53.778Z,86.79
2019-02-27T05:13:20.931Z,86.72
2019-02-27T05:15:47.229Z,86.56
2019-02-27T05:18:13.965Z,86.44
2019-02-27T05:20:44.997Z,86.37
2019-02-27T05:23:07.554Z,84.54
2019-02-27T05:25:34.274Z,84.33
2019-02-27T05:28:01.532Z,84.41
2019-02-27T05:30:27.714Z,85.40
2019-02-27T05:32:54.443Z,86.62
2019-02-27T05:35:23.705Z,86.31
2019-02-27T05:37:47.918Z,86.39
2019-02-27T05:40:14.642Z,86.70
2019-02-27T05:42:41.370Z,87.44
2019-02-27T05:45:09.706Z,87.28
2019-02-27T05:47:36.434Z,87.37
2019-02-27T05:50:04.210Z,87.76
2019-02-27T05:52:30.938Z,88.53
2019-02-27T05:54:57.730Z,89.18
2019-02-27T05:57:24.454Z,90.61
2019-02-27T05:59:51.178Z,90.57
2019-02-27T06:02:17.921Z,90.62
2019-02-27T06:04:44.661Z,89.51
2019-02-27T06:07:11.389Z,89.88
2019-02-27T06:09:38.116Z,89.66
2019-02-27T06:12:06.855Z,89.38
2019-02-27T06:14:31.582Z,89.61
2019-02-27T06:16:58.305Z,87.93
2019-02-27T06:19:25.045Z,90.18
2019-02-27T06:21:56.099Z,89.00
2019-02-27T06:24:18.509Z,89.46
2019-02-27T06:26:45.225Z,89.15
2019-02-27T06:29:11.949Z,89.32
2019-02-27T06:31:39.540Z,88.50
2019-02-27T06:34:05.377Z,88.05
2019-02-27T06:36:32.113Z,87.27
2019-02-27T06:39:00.341Z,87.46
2019-02-27T06:41:25.558Z,86.93
2019-02-27T06:43:52.278Z,86.54
2019-02-27T06:46:20.077Z,85.43
2019-02-27T06:48:45.725Z,86.94
2019-02-27T06:51:12.441Z,87.69
2019-02-27T06:53:39.186Z,87.22
2019-02-27T06:56:05.900Z,86.70
2019-02-27T06:58:32.622Z,87.35
2019-02-27T07:00:59.335Z,88.42
2019-02-27T07:03:29.283Z,88.72
2019-02-27T07:05:52.851Z,88.55
2019-02-27T07:08:19.629Z,88.64
2019-02-27T07:10:46.354Z,88.36
2019-02-27T07:13:13.066Z,87.81
2019-02-27T07:15:39.794Z,86.58
2019-02-27T07:18:06.747Z,86.14
2019-02-27T07:20:33.432Z,86.08
2019-02-27T07:23:00.141Z,85.46
2019-02-27T07:25:27.010Z,85.37
2019-02-27T07:27:53.726Z,85.48
2019-02-27T07:30:20.470Z,85.50
2019-02-27T07:32:47.185Z,85.58
2019-02-27T07:35:13.917Z,84.60
2019-02-27T07:37:40.638Z,84.90
2019-02-27T07:40:09.373Z,84.91
2019-02-27T07:42:36.359Z,84.28
2019-02-27T07:45:02.678Z,82.64
2019-02-27T07:47:29.397Z,83.06
2019-02-27T07:49:56.138Z,83.12
2019-02-27T07:52:22.854Z,83.04
2019-02-27T07:54:49.609Z,81.76
2019-02-27T07:57:16.329Z,81.57
2019-02-27T07:59:43.065Z,81.97
2019-02-27T08:02:09.793Z,81.77
2019-02-27T08:04:36.530Z,81.36
2019-02-27T08:07:03.258Z,82.30
2019-02-27T08:09:30.732Z,81.95
2019-02-27T08:11:56.804Z,80.23
2019-02-27T08:14:23.542Z,81.20
2019-02-27T08:16:50.287Z,80.93
2019-02-27T08:19:17.060Z,80.36
2019-02-27T08:21:43.780Z,80.38
2019-02-27T08:24:11.528Z,79.66
2019-02-27T08:26:38.511Z,79.14
2019-02-27T08:29:05.246Z,79.28
2019-02-27T08:31:32.187Z,78.71
2019-02-27T08:33:58.897Z,77.81
2019-02-27T08:36:25.626Z,77.55
2019-02-27T08:38:52.344Z,77.30
2019-02-27T08:41:19.254Z,75.36
2019-02-27T08:43:45.975Z,74.28
2019-02-27T08:46:12.722Z,73.02
2019-02-27T08:48:39.542Z,71.59
2019-02-27T08:53:34.480Z,70.85
2019-02-27T08:55:59.777Z,70.34
2019-02-27T08:58:28.964Z,70.98
2019-02-27T09:00:53.254Z,70.40
2019-02-27T09:03:20.784Z,69.47
2019-02-27T09:05:46.746Z,69.32
2019-02-27T09:08:13.470Z,68.31
2019-02-27T09:10:40.320Z,67.47
2019-02-27T09:13:07.051Z,67.33
2019-02-27T09:15:33.906Z,67.94
2019-02-27T09:18:01.918Z,66.85
2019-02-27T09:20:27.478Z,66.36
2019-02-27T09:22:55.824Z,66.74
2019-02-27T09:25:23.894Z,66.72
2019-02-27T09:27:47.713Z,65.06
2019-02-27T09:30:14.651Z,63.35
2019-02-27T09:32:43.270Z,63.49
2019-02-27T09:35:08.164Z,61.94
2019-02-27T09:37:34.866Z,63.06
2019-02-27T09:40:04.826Z,61.49
2019-02-27T09:42:28.346Z,62.05
2019-02-27T09:44:55.202Z,60.24
2019-02-27T09:47:23.207Z,60.83
2019-02-27T09:49:48.742Z,59.16
2019-02-27T09:52:15.481Z,58.85
2019-02-27T09:54:46.792Z,59.22
2019-02-27T09:57:08.929Z,59.39
2019-02-27T09:59:35.737Z,58.46
2019-02-27T10:02:02.477Z,56.86
2019-02-27T10:04:29.206Z,57.13
2019-02-27T10:06:55.934Z,56.57
2019-02-27T10:09:22.653Z,58.24
2019-02-27T10:11:52.200Z,57.25
2019-02-27T10:14:16.403Z,56.73
2019-02-27T10:16:42.938Z,56.89
2019-02-27T10:19:09.962Z,55.67
2019-02-27T10:21:36.719Z,56.96
2019-02-27T10:24:04.791Z,55.77
2019-02-27T10:26:30.284Z,55.79
2019-02-27T10:28:57.114Z,53.71
2019-02-27T10:31:25.979Z,55.90
2019-02-27T10:33:50.557Z,55.89
2019-02-27T10:36:17.285Z,55.68
2019-02-27T10:38:45.446Z,54.72
2019-02-27T10:41:10.818Z,53.89
2019-02-27T10:43:37.677Z,53.27
2019-02-27T10:46:04.422Z,53.96
2019-02-27T10:48:31.145Z,53.73
2019-02-27T10:50:57.889Z,53.57
2019-02-27T10:53:27.135Z,53.84
2019-02-27T10:55:51.379Z,53.98
2019-02-27T10:58:18.109Z,53.53
2019-02-27T11:00:46.357Z,52.97
2019-02-27T11:03:12.350Z,53.04
2019-02-27T11:05:39.185Z,53.82
2019-02-27T11:08:05.910Z,51.84
2019-02-27T11:10:32.641Z,51.45
2019-02-27T11:12:59.366Z,51.97
2019-02-27T11:15:26.090Z,52.03
2019-02-27T11:17:53.494Z,51.66
2019-02-27T11:20:21.007Z,51.89
2019-02-27T11:22:46.313Z,50.97
2019-02-27T11:25:14.655Z,50.92
2019-02-27T11:27:41.390Z,51.04
2019-02-27T11:30:13.165Z,51.41
2019-02-27T11:32:39.902Z,50.39
2019-02-27T11:35:06.618Z,50.07
2019-02-27T11:37:33.356Z,50.76
2019-02-27T11:40:00.226Z,49.83
2019-02-27T11:42:29.048Z,48.00
2019-02-27T11:44:53.605Z,50.03
2019-02-27T11:47:20.341Z,51.02
2019-02-27T11:49:47.062Z,49.09
2019-02-27T11:52:13.802Z,48.47
2019-02-27T11:54:43.124Z,48.58
2019-02-27T11:57:07.282Z,48.02
2019-02-27T11:59:34.074Z,49.29
2019-02-27T12:02:00.811Z,46.06
2019-02-27T12:04:27.538Z,49.29
2019-02-27T12:06:54.277Z,47.66
2019-02-27T12:09:20.998Z,47.18
2019-02-27T12:11:48.824Z,46.37
2019-02-27T12:14:14.517Z,47.16
2019-02-27T12:16:41.258Z,47.10
2019-02-27T12:19:08.752Z,47.88
2019-02-27T12:21:34.714Z,45.57
2019-02-27T12:24:01.462Z,46.00
2019-02-27T12:26:28.206Z,45.74
2019-02-27T12:28:54.931Z,45.41
2019-02-27T12:31:21.793Z,45.78
2019-02-27T12:33:48.648Z,44.78
2019-02-27T12:36:16.103Z,44.95
2019-02-27T12:38:42.560Z,44.30
2019-02-27T12:41:08.934Z,43.70
2019-02-27T12:43:35.689Z,43.17
2019-02-27T12:46:02.448Z,43.58
2019-02-27T12:48:29.189Z,42.58
2019-02-27T12:50:55.910Z,42.53
2019-02-27T12:53:22.658Z,42.29
2019-02-27T12:55:49.377Z,42.59
2019-02-27T12:58:16.118Z,41.79
2019-02-27T13:00:43.148Z,41.05
2019-02-27T13:03:09.600Z,41.19
2019-02-27T13:05:36.323Z,41.41
2019-02-27T13:08:03.074Z,42.13
2019-02-27T13:10:34.046Z,40.06
2019-02-27T13:12:56.617Z,39.75
2019-02-27T13:15:23.459Z,39.78
2019-02-27T13:17:50.206Z,38.96
2019-02-27T13:20:18.786Z,39.42
2019-02-27T13:22:45.520Z,39.42
2019-02-27T13:25:12.274Z,37.98
2019-02-27T13:27:40.385Z,39.26
2019-02-27T13:30:09.169Z,37.30
2019-02-27T13:32:33.578Z,39.82
2019-02-27T13:35:00.330Z,38.84
2019-02-27T13:37:27.158Z,37.00
2019-02-27T13:39:53.908Z,36.92
2019-02-27T13:42:20.642Z,35.20
2019-02-27T13:44:47.407Z,36.28
2019-02-27T13:47:14.134Z,37.69
2019-02-27T13:49:40.871Z,36.46
2019-02-27T13:52:12.138Z,37.03
2019-02-27T13:54:37.357Z,36.56
2019-02-27T13:57:01.099Z,35.58
2019-02-27T13:59:27.830Z,36.71
2019-02-27T14:01:54.582Z,34.70
2019-02-27T14:04:22.625Z,36.27
2019-02-27T14:06:48.175Z,33.68
2019-02-27T14:09:14.906Z,34.63
2019-02-27T14:11:41.658Z,35.31
2019-02-27T14:14:08.402Z,34.36
2019-02-27T14:16:35.605Z,33.18
2019-02-27T14:19:02.366Z,34.25
2019-02-27T14:21:29.115Z,35.16
2019-02-27T14:23:55.850Z,33.81
2019-02-27T14:26:22.611Z,32.69
2019-02-27T14:28:49.434Z,32.45
2019-02-27T14:31:16.281Z,35.04
2019-02-27T14:33:43.011Z,37.95
2019-02-27T14:36:09.886Z,36.10
2019-02-27T14:38:36.614Z,36.52
2019-02-27T14:41:03.374Z,37.05
2019-02-27T14:43:30.110Z,38.32
2019-02-27T14:45:56.869Z,37.09
2019-02-27T14:48:23.622Z,32.41
2019-02-27T14:50:50.402Z,32.74
2019-02-27T14:53:19.708Z,32.56
2019-02-27T14:55:43.982Z,32.17
2019-02-27T14:58:10.714Z,33.16
2019-02-27T15:00:40.900Z,32.10
2019-02-27T15:03:04.341Z,32.93
2019-02-27T15:05:31.230Z,32.50
2019-02-27T15:07:57.975Z,31.60
2019-02-27T15:10:24.726Z,31.67
2019-02-27T15:12:55.046Z,31.78
2019-02-27T15:15:20.130Z,32.43
2019-02-27T15:17:46.867Z,32.38
2019-02-27T15:20:14.232Z,31.97
2019-02-27T15:22:40.966Z,33.36
2019-02-27T15:25:09.434Z,32.07
2019-02-27T15:27:36.196Z,33.57
2019-02-27T15:30:02.981Z,33.16
2019-02-27T15:32:30.297Z,33.08
2019-02-27T15:34:56.526Z,32.21
2019-02-27T15:37:23.282Z,32.08
2019-02-27T15:39:51.938Z,32.41
2019-02-27T15:42:16.778Z,30.60
2019-02-27T15:44:43.510Z,30.16
2019-02-27T15:47:10.333Z,31.63
2019-02-27T15:49:37.070Z,31.23
2019-02-27T15:52:06.972Z,31.88
2019-02-27T15:54:30.566Z,31.72
2019-02-27T15:56:57.314Z,32.27
2019-02-27T15:59:24.134Z,31.12
2019-02-27T16:01:50.985Z,33.22
2019-02-27T16:04:21.062Z,34.01
2019-02-27T16:06:44.569Z,32.98
2019-02-27T16:09:11.307Z,33.86
2019-02-27T16:11:38.061Z,33.96
2019-02-27T16:14:09.138Z,35.18
2019-02-27T16:16:31.651Z,39.44
2019-02-27T16:18:58.374Z,41.48
2019-02-27T16:21:25.114Z,39.81
2019-02-27T16:23:51.841Z,38.63
2019-02-27T16:26:18.593Z,37.74
2019-02-27T16:28:46.106Z,37.89
2019-02-27T16:31:12.175Z,37.69
2019-02-27T16:33:38.902Z,37.08
2019-02-27T16:36:05.647Z,39.21
2019-02-27T16:38:32.594Z,39.66
2019-02-27T16:40:59.106Z,40.63
2019-02-27T16:43:25.880Z,39.47
2019-02-27T16:45:52.614Z,38.93
2019-02-27T16:48:19.395Z,38.83
2019-02-27T16:50:46.125Z,38.92
2019-02-27T16:53:15.679Z,37.05
2019-02-27T16:55:39.692Z,37.83
2019-02-27T16:58:06.338Z,36.92
2019-02-27T17:00:33.170Z,39.35
2019-02-27T17:02:59.897Z,38.04
2019-02-27T17:05:26.650Z,41.63
2019-02-27T17:07:53.505Z,42.13
2019-02-27T17:10:22.621Z,42.63
2019-02-27T17:12:49.357Z,43.37
2019-02-27T17:15:16.089Z,43.08
2019-02-27T17:17:42.826Z,41.34
2019-02-27T17:20:12.837Z,40.37
2019-02-27T17:22:38.556Z,40.85
2019-02-27T17:25:06.242Z,44.08
2019-02-27T17:27:32.995Z,44.51
2019-02-27T17:30:00.745Z,42.82
2019-02-27T17:32:27.466Z,45.88
2019-02-27T17:34:53.178Z,46.10
2019-02-27T17:37:19.950Z,46.57
2019-02-27T17:39:46.672Z,46.71
2019-02-27T17:42:18.313Z,47.02
2019-02-27T17:44:40.422Z,47.37
2019-02-27T17:47:08.240Z,46.50
2019-02-27T17:49:33.893Z,45.29
2019-02-27T17:52:00.743Z,46.70
2019-02-27T17:54:31.370Z,44.79
2019-02-27T17:56:54.209Z,43.18
2019-02-27T17:59:20.921Z,44.28
2019-02-27T18:01:47.645Z,43.12
2019-02-27T18:04:15.106Z,42.94
2019-02-27T18:06:41.112Z,42.79
2019-02-27T18:09:07.924Z,43.64
2019-02-27T18:11:34.642Z,44.32
2019-02-27T18:14:01.373Z,45.44
2019-02-27T18:16:28.101Z,46.59
2019-02-27T18:18:54.858Z,48.78
2019-02-27T18:21:21.579Z,49.58
2019-02-27T18:23:48.334Z,49.50
2019-02-27T18:26:15.804Z,49.50
2019-02-27T18:28:41.805Z,51.33
2019-02-27T18:31:08.513Z,51.65
2019-02-27T18:33:35.268Z,51.05
2019-02-27T18:36:04.868Z,53.16
2019-02-27T18:38:28.726Z,53.89
2019-02-27T18:40:55.445Z,51.58
2019-02-27T18:43:22.200Z,52.09
2019-02-27T18:45:50.861Z,53.35
2019-02-27T18:48:15.762Z,53.54
2019-02-27T18:50:42.542Z,53.68
2019-02-27T18:53:12.949Z,54.03
2019-02-27T18:55:36.073Z,54.31
2019-02-27T18:58:02.957Z,55.21
2019-02-27T19:00:29.695Z,54.42
2019-02-27T19:02:56.624Z,55.13
2019-02-27T19:05:23.346Z,54.30
2019-02-27T19:07:53.657Z,55.72
2019-02-27T19:10:16.851Z,56.15
2019-02-27T19:12:43.570Z,54.04
2019-02-27T19:15:12.118Z,54.99
2019-02-27T19:17:38.694Z,55.35
2019-02-27T19:20:06.939Z,54.97
2019-02-27T19:22:33.673Z,54.64
2019-02-27T19:25:00.839Z,56.43
2019-02-27T19:27:27.133Z,56.72
2019-02-27T19:29:53.841Z,55.63
2019-02-27T19:32:23.192Z,55.95
2019-02-27T19:34:48.154Z,55.26
2019-02-27T19:37:14.026Z,55.70
2019-02-27T19:39:40.742Z,56.25
2019-02-27T19:42:10.276Z,56.51
2019-02-27T19:44:34.422Z,55.51
2019-02-27T19:47:01.126Z,54.23
2019-02-27T19:49:27.838Z,55.08
2019-02-27T19:51:55.448Z,54.89
2019-02-27T19:54:21.329Z,54.87
2019-02-27T19:56:48.058Z,55.28
2019-02-27T19:59:14.781Z,55.66
2019-02-27T20:01:46.289Z,55.72
2019-02-27T20:04:09.655Z,56.74
2019-02-27T20:06:34.997Z,57.73
2019-02-27T20:09:01.708Z,58.95
2019-02-27T20:11:28.432Z,58.16
2019-02-27T20:13:55.166Z,59.34
2019-02-27T20:16:21.970Z,59.44
2019-02-27T20:18:54.805Z,59.48
2019-02-27T20:21:15.441Z,59.49
2019-02-27T20:23:42.166Z,58.98
2019-02-27T20:26:13.996Z,58.69
2019-02-27T20:28:35.618Z,58.92
2019-02-27T20:31:02.325Z,57.60
2019-02-27T20:33:29.084Z,58.48
2019-02-27T20:35:56.704Z,58.85
2019-02-27T20:38:22.555Z,58.39
2019-02-27T20:40:49.279Z,60.62
2019-02-27T20:43:16.017Z,59.76
2019-02-27T20:45:43.641Z,59.78
2019-02-27T20:48:09.582Z,59.87
2019-02-27T20:50:38.698Z,60.53
2019-02-27T20:53:05.798Z,61.00
2019-02-27T20:55:32.523Z,60.57
2019-02-27T20:57:59.257Z,61.14
2019-02-27T21:00:25.977Z,60.88
2019-02-27T21:02:53.491Z,61.80
2019-02-27T21:05:19.433Z,61.73
2019-02-27T21:07:46.170Z,61.73
2019-02-27T21:10:19.993Z,62.49
2019-02-27T21:12:51.070Z,62.73
2019-02-27T21:15:09.086Z,63.00
2019-02-27T21:17:35.821Z,62.43
2019-02-27T21:20:02.609Z,62.17
2019-02-27T21:22:29.342Z,62.09
2019-02-27T21:24:56.085Z,62.40
2019-02-27T21:27:22.875Z,62.15
2019-02-27T21:29:49.618Z,63.38
2019-02-27T21:32:16.337Z,64.42
2019-02-27T21:34:43.166Z,64.87
2019-02-27T21:37:10.066Z,64.75
2019-02-27T21:39:36.617Z,65.25
2019-02-27T21:42:03.366Z,64.99
2019-02-27T21:44:30.125Z,64.86
2019-02-27T21:46:56.813Z,65.58
2019-02-27T21:49:23.560Z,65.33
2019-02-27T21:51:50.358Z,65.93
2019-02-27T21:54:18.976Z,66.37
2019-02-27T21:56:45.378Z,66.42
2019-02-27T21:59:12.166Z,67.11
2019-02-27T22:01:38.898Z,66.38
2019-02-27T22:04:05.642Z,65.52
2019-02-27T22:06:32.357Z,66.09
2019-02-27T22:08:59.093Z,66.30
2019-02-27T22:11:27.106Z,66.25
2019-02-27T22:13:52.689Z,65.11
2019-02-27T22:16:19.416Z,65.54
2019-02-27T22:18:47.003Z,65.44
2019-02-27T22:21:14.248Z,65.50
2019-02-27T22:23:39.643Z,66.93
2019-02-27T22:26:06.369Z,66.50
2019-02-27T22:28:33.134Z,66.86
2019-02-27T22:30:59.853Z,66.91
2019-02-27T22:33:26.610Z,67.49
2019-02-27T22:35:53.330Z,67.99
2019-02-27T22:38:20.082Z,67.53
2019-02-27T22:40:46.803Z,67.12
2019-02-27T22:43:13.550Z,67.80
2019-02-27T22:45:43.846Z,67.55
2019-02-27T22:48:07.005Z,68.75
2019-02-27T22:50:33.773Z,69.19
2019-02-27T22:53:00.492Z,69.51
2019-02-27T22:55:27.241Z,69.96
2019-02-27T22:57:54.775Z,70.85
2019-02-27T23:00:37.698Z,70.44
2019-02-27T23:03:04.428Z,70.64
2019-02-27T23:05:31.158Z,70.14
2019-02-27T23:07:57.890Z,70.83
2019-02-27T23:10:24.637Z,70.62
2019-02-27T23:12:51.351Z,71.64
2019-02-27T23:15:18.091Z,71.95
2019-02-27T23:17:44.813Z,71.73
2019-02-27T23:20:11.546Z,72.32
2019-02-27T23:22:38.261Z,72.03
2019-02-27T23:25:05.026Z,72.14
2019-02-27T23:27:31.758Z,72.04
2019-02-27T23:29:58.494Z,72.09
2019-02-27T23:32:28.640Z,71.83
2019-02-27T23:34:53.133Z,71.90
2019-02-27T23:37:19.853Z,70.76
2019-02-27T23:39:46.605Z,70.82
2019-02-27T23:42:13.338Z,71.18
2019-02-27T23:44:40.078Z,71.85
2019-02-27T23:47:06.802Z,72.14
2019-02-27T23:49:33.585Z,72.79
2019-02-27T23:52:00.350Z,72.64
2019-02-27T23:54:27.590Z,72.99
2019-02-27T23:56:54.342Z,72.97
2019-02-27T23:59:21.082Z,72.37
